Time;durP1;ratioP1;P1;durP2;ratioP2;P2;SDS_P1;SDS_P2;PMS_P1;PMS_P2;Temp;Humidity;BMP_temperature;BMP_pressure;BME280_temperature;BME280_humidity;BME280_pressure;Samples;Min_cycle;Max_cycle;Signal;HPM_P1;HPM_P2
2022/08/31 00:04:12;;;;;;;0.50;0.50;;;;;;;32.40;24.37;98508.84;5008989;28;20560;-78
2022/08/31 00:06:39;;;;;;;1.58;0.70;;;;;;;32.50;24.30;98499.84;5006042;28;20088;-79
2022/08/31 00:09:06;;;;;;;0.80;0.55;;;;;;;32.60;24.84;98503.44;5005895;28;20037;-78
2022/08/31 00:11:34;;;;;;;0.80;0.60;;;;;;;32.62;24.43;98500.88;5007098;28;20109;-78
2022/08/31 00:14:05;;;;;;;0.63;0.50;;;;;;;32.55;25.03;98504.06;5008689;28;20069;-79
2022/08/31 00:16:33;;;;;;;0.57;0.45;;;;;;;32.39;24.74;98502.41;5004151;28;20018;-79
2022/08/31 00:18:59;;;;;;;0.77;0.40;;;;;;;31.70;25.42;98510.94;4999047;28;20038;-79
2022/08/31 00:21:26;;;;;;;1.23;0.50;;;;;;;31.97;25.20;98505.22;5009785;28;20038;-79
2022/08/31 00:23:53;;;;;;;0.60;0.60;;;;;;;32.22;25.10;98508.94;5009186;28;20393;-79
2022/08/31 00:26:21;;;;;;;0.50;0.40;;;;;;;32.35;25.01;98506.69;5008763;28;20474;-79
2022/08/31 00:28:48;;;;;;;1.27;0.60;;;;;;;32.14;24.98;98510.56;5005287;28;20030;-79
2022/08/31 00:31:15;;;;;;;0.73;0.57;;;;;;;32.10;25.16;98507.88;5023790;28;20577;-79
2022/08/31 00:33:41;;;;;;;0.60;0.60;;;;;;;32.29;24.67;98508.59;5012830;28;20057;-78
2022/08/31 00:36:11;;;;;;;0.63;0.57;;;;;;;32.39;24.37;98496.72;5006404;28;20041;-78
2022/08/31 00:38:39;;;;;;;0.75;0.70;;;;;;;32.17;24.83;98501.06;5006070;28;20445;-78
2022/08/31 00:41:06;;;;;;;0.50;0.50;;;;;;;32.01;25.24;98500.19;5006091;28;20109;-78
2022/08/31 00:43:40;;;;;;;0.95;0.50;;;;;;;32.05;25.23;98506.47;5005922;28;20041;-78
2022/08/31 00:46:08;;;;;;;1.48;0.65;;;;;;;32.21;24.75;98504.53;4996390;28;20034;-78
2022/08/31 00:48:39;;;;;;;0.60;0.60;;;;;;;31.77;25.70;98502.09;5019532;28;20026;-78
2022/08/31 00:51:05;;;;;;;0.70;0.60;;;;;;;32.11;24.86;98503.00;5013813;28;20041;-79
2022/08/31 00:53:31;;;;;;;1.10;0.57;;;;;;;32.23;24.56;98499.91;5003401;28;20501;-78
2022/08/31 00:55:58;;;;;;;0.32;0.30;;;;;;;32.09;24.28;98504.25;5007580;28;20501;-78
2022/08/31 00:58:24;;;;;;;0.75;0.65;;;;;;;31.94;24.44;98494.81;5007207;28;20033;-79
2022/08/31 01:00:51;;;;;;;0.50;0.50;;;;;;;31.92;24.67;98500.19;5005569;28;20088;-79
2022/08/31 01:03:18;;;;;;;1.10;0.60;;;;;;;32.00;24.84;98509.97;5005062;28;20597;-79
2022/08/31 01:05:44;;;;;;;0.55;0.50;;;;;;;31.98;24.56;98501.13;5008425;28;20124;-78
2022/08/31 01:08:11;;;;;;;0.50;0.50;;;;;;;32.02;24.29;98509.50;5010796;28;20037;-78
2022/08/31 01:10:42;;;;;;;0.80;0.60;;;;;;;31.84;24.27;98501.78;4998362;28;20041;-78
2022/08/31 01:13:11;;;;;;;0.77;0.40;;;;;;;31.89;24.59;98500.34;5002810;28;20092;-79
2022/08/31 01:15:43;;;;;;;0.50;0.50;;;;;;;31.96;24.05;98506.50;5002307;28;20065;-78
2022/08/31 01:18:10;;;;;;;0.70;0.55;;;;;;;32.06;24.26;98501.59;5002360;28;20038;-78
2022/08/31 01:21:02;;;;;;;4.53;0.80;;;;;;;31.68;25.08;98499.28;5003747;28;20406;-78
2022/08/31 01:23:41;;;;;;;0.40;0.35;;;;;;;31.22;25.46;98503.41;5001807;28;20034;-78
2022/08/31 01:26:11;;;;;;;1.73;0.60;;;;;;;31.37;24.95;98505.13;5005384;28;20121;-78
2022/08/31 01:28:37;;;;;;;0.60;0.60;;;;;;;31.52;24.67;98504.53;4995481;28;20030;-78
2022/08/31 01:31:20;;;;;;;1.23;0.70;;;;;;;31.64;24.32;98507.19;4999037;28;20042;-79
2022/08/31 01:33:46;;;;;;;1.15;0.60;;;;;;;31.41;25.17;98507.81;4998217;28;20034;-78
2022/08/31 01:36:14;;;;;;;0.57;0.52;;;;;;;31.36;25.05;98508.44;5003097;28;20042;-78
2022/08/31 01:38:40;;;;;;;0.50;0.50;;;;;;;31.46;24.59;98509.25;5005694;28;20117;-78
2022/08/31 01:41:06;;;;;;;0.47;0.47;;;;;;;31.65;24.71;98516.50;5006679;28;21028;-78
2022/08/31 01:43:34;;;;;;;1.70;0.50;;;;;;;31.82;23.94;98512.03;4995894;28;20196;-78
2022/08/31 01:46:08;;;;;;;0.43;0.43;;;;;;;31.90;23.94;98513.28;4997012;28;20049;-78
2022/08/31 01:48:35;;;;;;;0.75;0.75;;;;;;;31.78;24.58;98511.41;4997778;28;20113;-78
2022/08/31 01:51:02;;;;;;;0.63;0.57;;;;;;;31.39;24.30;98499.75;4999029;28;20550;-78
2022/08/31 01:53:28;;;;;;;1.02;0.43;;;;;;;31.17;24.69;98504.84;5001203;28;20445;-78
2022/08/31 01:55:54;;;;;;;0.43;0.40;;;;;;;31.09;24.80;98508.44;4996283;28;20038;-78
2022/08/31 01:58:21;;;;;;;0.40;0.40;;;;;;;30.46;25.43;98515.53;5001134;28;20081;-79
2022/08/31 02:00:47;;;;;;;1.17;0.57;;;;;;;30.11;26.37;98510.50;5012986;28;20049;-79
2022/08/31 02:03:13;;;;;;;0.57;0.57;;;;;;;29.96;26.77;98507.44;5011319;28;20057;-78
2022/08/31 02:05:39;;;;;;;0.50;0.50;;;;;;;30.36;26.46;98505.44;5005436;28;20038;-78
2022/08/31 02:08:08;;;;;;;0.43;0.43;;;;;;;30.74;25.92;98505.06;5010486;28;20042;-78
2022/08/31 02:10:34;;;;;;;0.47;0.47;;;;;;;30.68;25.67;98513.41;5004832;28;20081;-78
2022/08/31 02:13:00;;;;;;;0.50;0.50;;;;;;;30.70;25.55;98512.94;5001587;28;21887;-78
2022/08/31 02:15:26;;;;;;;3.50;0.70;;;;;;;30.83;25.36;98516.41;5001403;28;20038;-78
2022/08/31 02:17:52;;;;;;;0.60;0.60;;;;;;;31.05;25.07;98499.28;5002598;28;20057;-78
2022/08/31 02:20:19;;;;;;;0.52;0.47;;;;;;;31.35;24.78;98504.03;4994928;28;20487;-78
2022/08/31 02:22:47;;;;;;;0.60;0.60;;;;;;;31.50;24.25;98510.69;5001268;28;20054;-78
2022/08/31 02:25:14;;;;;;;0.60;0.52;;;;;;;31.16;24.70;98499.59;4999933;28;20125;-78
2022/08/31 02:27:40;;;;;;;3.63;0.55;;;;;;;31.10;24.58;98498.69;4994491;28;20083;-78
2022/08/31 02:30:10;;;;;;;0.88;0.77;;;;;;;31.17;24.30;98499.16;4996545;28;20038;-78
2022/08/31 02:32:36;;;;;;;0.70;0.47;;;;;;;31.08;24.10;98502.00;5003241;28;20049;-77
2022/08/31 02:35:03;;;;;;;0.60;0.60;;;;;;;31.01;24.28;98496.63;4998281;28;20030;-78
2022/08/31 02:37:29;;;;;;;0.52;0.50;;;;;;;31.09;24.17;98499.91;4997228;28;20040;-78
2022/08/31 02:39:55;;;;;;;0.82;0.70;;;;;;;31.26;23.91;98501.19;5004756;28;20050;-78
2022/08/31 02:42:21;;;;;;;1.38;0.60;;;;;;;31.38;24.03;98500.25;4996035;28;20038;-77
2022/08/31 02:44:47;;;;;;;0.40;0.40;;;;;;;30.92;24.98;98499.47;4995514;28;20030;-78
2022/08/31 02:47:13;;;;;;;0.38;0.38;;;;;;;30.94;24.59;98496.94;4997661;28;20093;-77
2022/08/31 02:49:40;;;;;;;0.70;0.50;;;;;;;30.98;24.46;98500.41;5005618;28;20053;-78
2022/08/31 02:52:06;;;;;;;0.75;0.50;;;;;;;31.14;23.94;98496.47;5001703;28;20513;-78
2022/08/31 02:54:32;;;;;;;0.50;0.50;;;;;;;31.28;23.62;98498.66;4998716;28;20033;-78
2022/08/31 02:56:58;;;;;;;0.50;0.50;;;;;;;31.20;24.12;98500.25;4999084;28;20034;-78
2022/08/31 02:59:24;;;;;;;0.50;0.50;;;;;;;31.04;24.45;98492.84;4995074;28;20030;-77
2022/08/31 03:01:52;;;;;;;0.50;0.50;;;;;;;31.18;24.31;98495.03;4996619;28;20046;-78
2022/08/31 03:04:19;;;;;;;0.40;0.40;;;;;;;31.28;23.90;98498.66;5001720;28;20028;-78
2022/08/31 03:06:46;;;;;;;0.60;0.60;;;;;;;31.28;23.86;98499.47;5014218;28;20038;-77
2022/08/31 03:09:12;;;;;;;0.98;0.70;;;;;;;31.34;23.84;98493.94;5018461;28;20144;-78
2022/08/31 03:11:38;;;;;;;1.00;0.40;;;;;;;31.28;23.91;98510.00;5008292;28;20033;-78
2022/08/31 03:14:04;;;;;;;0.38;0.30;;;;;;;31.27;23.76;98511.28;5005929;28;20113;-78
2022/08/31 03:16:31;;;;;;;0.30;0.30;;;;;;;31.19;23.71;98502.31;5001005;28;20042;-78
2022/08/31 03:18:58;;;;;;;0.50;0.50;;;;;;;31.20;23.68;98505.94;4996762;28;20084;-78
2022/08/31 03:21:24;;;;;;;0.63;0.63;;;;;;;31.23;23.93;98513.47;4995107;28;20042;-78
2022/08/31 03:23:50;;;;;;;0.50;0.50;;;;;;;31.23;23.50;98508.59;5000769;28;20026;-78
2022/08/31 03:26:16;;;;;;;0.70;0.50;;;;;;;31.13;23.87;98514.75;5000871;28;20500;-78
2022/08/31 03:28:42;;;;;;;0.45;0.45;;;;;;;31.13;23.80;98509.09;4993085;28;20042;-78
2022/08/31 03:31:09;;;;;;;0.52;0.50;;;;;;;31.07;23.56;98517.44;5001224;28;20069;-78
2022/08/31 03:33:35;;;;;;;0.75;0.55;;;;;;;31.16;23.71;98522.31;4998248;28;20508;-78
2022/08/31 03:36:04;;;;;;;0.60;0.55;;;;;;;31.10;23.58;98512.84;4998042;28;20049;-78
2022/08/31 03:38:31;;;;;;;0.40;0.40;;;;;;;31.00;23.73;98517.72;4998923;28;20498;-78
2022/08/31 03:40:57;;;;;;;1.10;0.50;;;;;;;31.12;23.44;98508.28;4995573;28;20053;-78
2022/08/31 03:43:23;;;;;;;1.27;0.30;;;;;;;31.06;23.56;98518.69;4995424;28;20036;-78
2022/08/31 03:45:50;;;;;;;0.47;0.47;;;;;;;30.85;24.02;98519.59;4995651;28;20037;-78
2022/08/31 03:48:16;;;;;;;0.63;0.63;;;;;;;30.94;23.97;98513.16;4996420;28;20062;-78
2022/08/31 03:50:42;;;;;;;0.40;0.35;;;;;;;31.04;23.51;98509.09;4999822;28;20045;-78
2022/08/31 03:53:09;;;;;;;0.65;0.50;;;;;;;31.14;23.10;98508.59;5005786;28;20029;-78
2022/08/31 03:55:38;;;;;;;0.60;0.60;;;;;;;31.09;23.42;98497.88;4997552;28;20046;-78
2022/08/31 03:58:04;;;;;;;0.45;0.45;;;;;;;31.02;23.05;98500.22;5000908;28;20112;-78
2022/08/31 04:00:30;;;;;;;0.50;0.50;;;;;;;30.45;23.57;98504.69;4998021;28;20108;-78
2022/08/31 04:02:58;;;;;;;0.50;0.50;;;;;;;30.31;24.14;98497.53;5014759;28;20038;-78
2022/08/31 04:05:25;;;;;;;0.57;0.40;;;;;;;30.14;24.76;98506.72;5006641;28;20030;-78
2022/08/31 04:07:52;;;;;;;0.70;0.60;;;;;;;30.11;24.87;98508.44;5006152;28;20080;-79
2022/08/31 04:10:18;;;;;;;0.50;0.50;;;;;;;30.50;23.88;98504.06;5007485;28;20486;-78
2022/08/31 04:12:44;;;;;;;0.77;0.60;;;;;;;30.81;23.53;98506.81;5006327;28;20377;-79
2022/08/31 04:15:10;;;;;;;1.20;0.60;;;;;;;30.97;23.65;98509.38;5001680;28;20152;-79
2022/08/31 04:17:37;;;;;;;0.50;0.50;;;;;;;30.68;23.39;98506.94;4999055;28;20069;-79
2022/08/31 04:20:04;;;;;;;0.50;0.50;;;;;;;30.30;24.44;98510.09;5000660;28;20109;-79
2022/08/31 04:22:30;;;;;;;0.43;0.43;;;;;;;30.31;24.49;98510.91;5001124;28;20073;-79
2022/08/31 04:24:56;;;;;;;0.50;0.50;;;;;;;30.49;23.95;98508.94;4999356;28;20042;-79
2022/08/31 04:27:23;;;;;;;0.60;0.60;;;;;;;30.87;24.19;98514.22;5007890;28;20502;-79
2022/08/31 04:29:49;;;;;;;0.60;0.60;;;;;;;31.29;23.92;98520.13;5010148;28;20654;-80
2022/08/31 04:32:15;;;;;;;0.85;0.75;;;;;;;31.74;23.38;98520.09;5006407;28;20038;-80
2022/08/31 04:34:41;;;;;;;0.50;0.50;;;;;;;31.71;23.46;98523.09;5009408;28;20083;-79
2022/08/31 04:37:09;;;;;;;0.60;0.60;;;;;;;31.72;23.89;98525.47;5002910;28;20412;-79
2022/08/31 04:39:35;;;;;;;1.65;0.63;;;;;;;32.17;23.69;98533.09;5025612;28;20397;-78
2022/08/31 04:42:01;;;;;;;0.57;0.50;;;;;;;32.63;23.05;98533.72;5001779;28;20382;-79
2022/08/31 04:44:27;;;;;;;2.50;1.85;;;;;;;32.44;22.74;98538.69;4998478;28;20077;-78
2022/08/31 04:46:54;;;;;;;0.50;0.45;;;;;;;31.93;23.33;98530.16;4997380;28;20034;-78
2022/08/31 04:49:20;;;;;;;0.73;0.73;;;;;;;31.90;23.58;98531.09;5015597;28;20026;-78
2022/08/31 04:51:46;;;;;;;0.63;0.63;;;;;;;32.02;23.80;98535.84;5016674;28;20037;-78
2022/08/31 04:54:13;;;;;;;0.57;0.57;;;;;;;32.41;23.47;98533.97;5008151;28;20025;-78
2022/08/31 04:56:42;;;;;;;0.60;0.60;;;;;;;32.86;23.51;98530.09;5017152;28;20038;-79
2022/08/31 04:59:11;;;;;;;2.65;0.70;;;;;;;33.02;23.26;98537.47;5015640;28;20049;-79
2022/08/31 05:01:40;;;;;;;0.77;0.50;;;;;;;32.56;23.61;98534.06;5016808;28;20073;-79
2022/08/31 05:04:07;;;;;;;0.73;0.73;;;;;;;32.35;24.20;98529.44;5016821;28;20037;-79
2022/08/31 05:06:36;;;;;;;1.00;0.70;;;;;;;32.09;24.30;98535.50;5016989;28;20037;-79
2022/08/31 05:09:06;;;;;;;0.50;0.50;;;;;;;32.00;24.96;98544.06;5030995;28;20036;-79
2022/08/31 05:11:33;;;;;;;0.85;0.85;;;;;;;31.73;25.24;98543.28;5016724;28;20053;-78
2022/08/31 05:14:01;;;;;;;0.95;0.70;;;;;;;31.75;25.68;98552.13;5016690;28;20034;-78
2022/08/31 05:16:29;;;;;;;0.85;0.70;;;;;;;31.84;25.45;98547.22;5014931;28;20091;-78
2022/08/31 05:18:56;;;;;;;1.35;0.90;;;;;;;31.98;25.63;98560.78;5015668;28;20080;-78
2022/08/31 05:21:29;;;;;;;1.13;0.90;;;;;;;32.27;25.51;98554.56;5016471;28;20057;-78
2022/08/31 05:24:02;;;;;;;1.42;1.33;;;;;;;32.50;26.07;98541.69;5010243;28;20413;-78
2022/08/31 05:26:32;;;;;;;2.30;1.33;;;;;;;32.40;26.25;98548.66;5016453;28;20482;-78
2022/08/31 05:28:59;;;;;;;1.40;1.02;;;;;;;32.52;26.04;98545.63;5011511;28;20482;-78
2022/08/31 05:31:28;;;;;;;1.60;1.20;;;;;;;32.99;25.39;98547.75;5011809;28;20061;-78
2022/08/31 05:33:56;;;;;;;1.70;1.30;;;;;;;32.84;25.80;98549.72;5014870;28;20018;-79
2022/08/31 05:36:22;;;;;;;1.95;1.55;;;;;;;32.64;26.60;98553.16;5015105;28;20517;-78
2022/08/31 05:38:48;;;;;;;1.65;1.55;;;;;;;32.69;25.98;98551.72;5016953;28;20490;-78
2022/08/31 05:41:15;;;;;;;1.77;1.52;;;;;;;32.46;26.50;98550.38;5016192;28;20029;-78
2022/08/31 05:43:41;;;;;;;2.03;1.60;;;;;;;32.19;27.81;98555.34;5015389;28;20054;-78
2022/08/31 05:46:09;;;;;;;3.47;1.67;;;;;;;32.12;27.60;98555.69;5015230;28;20038;-78
2022/08/31 05:48:36;;;;;;;3.47;1.45;;;;;;;32.35;27.09;98555.78;5015224;28;20497;-79
2022/08/31 05:51:05;;;;;;;1.30;1.20;;;;;;;32.64;26.74;98555.22;5030198;28;20436;-79
2022/08/31 05:53:32;;;;;;;1.63;1.10;;;;;;;32.83;26.58;98550.22;5011148;28;20064;-79
2022/08/31 05:56:10;;;;;;;1.25;1.15;;;;;;;33.60;25.93;98556.81;5011205;28;20481;-79
2022/08/31 05:58:38;;;;;;;1.10;1.00;;;;;;;34.26;25.16;98551.56;5016355;28;20377;-79
2022/08/31 06:01:16;;;;;;;1.35;1.08;;;;;;;34.38;25.54;98551.25;5010553;28;20468;-79
2022/08/31 06:03:43;;;;;;;1.30;1.10;;;;;;;34.85;24.75;98550.19;5010600;28;20030;-79
2022/08/31 06:06:10;;;;;;;2.28;1.83;;;;;;;35.04;23.95;98556.44;5015602;28;20504;-80
2022/08/31 06:08:37;;;;;;;1.52;1.00;;;;;;;34.93;24.36;98556.25;4998349;28;20026;-78
2022/08/31 06:11:05;;;;;;;2.30;1.00;;;;;;;34.56;24.90;98559.63;4996131;28;20478;-79
2022/08/31 06:13:31;;;;;;;1.33;1.10;;;;;;;33.48;27.63;98564.31;5021696;28;20096;-79
2022/08/31 06:16:01;;;;;;;1.33;0.93;;;;;;;32.86;27.94;98569.94;5015619;28;20371;-80
2022/08/31 06:18:27;;;;;;;1.33;1.20;;;;;;;32.59;29.42;98573.72;5008665;28;20030;-80
2022/08/31 06:21:08;;;;;;;1.10;0.90;;;;;;;33.16;28.35;98577.38;5015514;28;20057;-80
2022/08/31 06:23:38;;;;;;;;;;;;;;;33.01;27.25;98587.06;5015030;28;20030;-78
2022/08/31 06:26:08;;;;;;;1.08;0.98;;;;;;;33.31;27.27;98585.97;5011762;28;19917;-78
2022/08/31 06:28:35;;;;;;;1.33;0.90;;;;;;;32.73;27.60;98590.09;5014193;28;20034;-79
2022/08/31 06:31:10;;;;;;;1.33;1.00;;;;;;;32.42;28.92;98586.69;5014844;28;20466;-78
2022/08/31 06:33:37;;;;;;;5.80;1.20;;;;;;;31.92;29.09;98588.25;4998386;28;20037;-79
2022/08/31 06:36:08;;;;;;;0.98;0.80;;;;;;;31.79;30.15;98579.09;5013406;28;20042;-78
2022/08/31 06:38:34;;;;;;;1.10;1.00;;;;;;;31.17;31.63;98578.59;5014072;28;20109;-78
2022/08/31 06:41:00;;;;;;;1.52;1.05;;;;;;;31.36;30.99;98583.03;5010566;28;20497;-78
2022/08/31 06:43:27;;;;;;;0.98;0.93;;;;;;;31.51;31.08;98583.22;5002117;28;20382;-78
2022/08/31 06:45:56;;;;;;;3.70;0.80;;;;;;;31.41;30.03;98578.78;4995326;28;20038;-78
2022/08/31 06:48:22;;;;;;;1.35;0.90;;;;;;;30.65;31.67;98588.03;5012318;28;20033;-78
2022/08/31 06:50:56;;;;;;;0.80;0.70;;;;;;;32.22;30.71;98577.16;5011138;28;20030;-79
2022/08/31 06:53:22;;;;;;;0.70;0.70;;;;;;;32.95;28.51;98577.66;5014007;28;20038;-79
2022/08/31 06:55:48;;;;;;;1.63;0.88;;;;;;;32.87;28.79;98585.75;5014177;28;20076;-79
2022/08/31 06:58:14;;;;;;;5.13;0.80;;;;;;;32.83;28.18;98587.97;5008134;28;20034;-80
2022/08/31 07:00:41;;;;;;;2.08;0.70;;;;;;;32.43;29.63;98593.97;4995174;28;20659;-81
2022/08/31 07:03:23;;;;;;;0.70;0.70;;;;;;;32.48;28.48;98590.50;5010848;28;20101;-80
2022/08/31 07:05:51;;;;;;;2.63;0.70;;;;;;;30.65;32.87;98590.09;5013950;28;20485;-80
2022/08/31 07:08:18;;;;;;;1.00;0.70;;;;;;;31.18;32.04;98593.56;5014097;28;20033;-80
2022/08/31 07:10:45;;;;;;;0.93;0.70;;;;;;;31.61;32.20;98596.16;5014420;28;20394;-80
2022/08/31 07:13:11;;;;;;;2.45;0.90;;;;;;;31.59;32.15;98595.03;5014101;28;20512;-79
2022/08/31 07:15:37;;;;;;;0.68;0.68;;;;;;;32.32;30.69;98593.72;5010854;28;20030;-80
2022/08/31 07:18:04;;;;;;;0.98;0.68;;;;;;;32.62;30.79;98600.41;5012977;28;20034;-78
2022/08/31 07:20:30;;;;;;;0.70;0.70;;;;;;;33.02;30.42;98598.03;5014719;28;20474;-80
2022/08/31 07:22:56;;;;;;;0.60;0.57;;;;;;;33.22;29.72;98592.50;5000984;28;20030;-79
2022/08/31 07:25:25;;;;;;;2.55;1.05;;;;;;;31.47;31.97;98598.81;5013809;28;20096;-79
2022/08/31 07:27:54;;;;;;;1.20;0.70;;;;;;;32.32;30.90;98604.28;5012969;28;20109;-78
2022/08/31 07:30:21;;;;;;;1.17;0.80;;;;;;;32.19;31.06;98597.97;5007774;28;20054;-79
2022/08/31 07:32:49;;;;;;;0.65;0.65;;;;;;;31.99;30.74;98599.31;4995051;28;20463;-78
2022/08/31 07:35:16;;;;;;;1.38;0.93;;;;;;;30.84;32.25;98610.78;4998943;28;20026;-79
2022/08/31 07:43:13;;;;;;;0.90;0.77;;;;;;;32.54;30.53;98605.66;5033869;28;20135;-79
2022/08/31 07:45:40;;;;;;;0.65;0.65;;;;;;;32.66;29.62;98606.69;5014945;28;20371;-80
2022/08/31 07:48:06;;;;;;;0.63;0.63;;;;;;;33.10;29.16;98604.13;5011955;28;20379;-79
2022/08/31 07:50:33;;;;;;;0.50;0.50;;;;;;;33.94;29.34;98598.91;4997063;28;20489;-80
2022/08/31 07:52:59;;;;;;;1.30;0.70;;;;;;;32.39;31.92;98601.91;5005748;28;20040;-78
2022/08/31 07:55:27;;;;;;;1.10;0.50;;;;;;;33.59;28.82;98607.28;5020828;28;20026;-79
2022/08/31 07:57:55;;;;;;;0.45;0.40;;;;;;;33.58;28.25;98608.56;5013660;28;20517;-78
2022/08/31 08:00:24;;;;;;;0.73;0.40;;;;;;;33.16;30.67;98608.69;5012181;28;20405;-77
2022/08/31 08:02:52;;;;;;;1.08;0.57;;;;;;;32.22;31.93;98602.72;5012201;28;20046;-79
2022/08/31 08:05:21;;;;;;;0.90;0.57;;;;;;;31.36;32.24;98608.56;5012034;28;20038;-79
2022/08/31 08:07:52;;;;;;;1.23;0.50;;;;;;;31.85;31.26;98607.66;5000528;28;20034;-80
2022/08/31 08:10:22;;;;;;;1.55;0.50;;;;;;;32.14;28.65;98610.00;5013050;28;20033;-81
2022/08/31 08:12:59;;;;;;;2.13;0.52;;;;;;;32.49;29.48;98605.47;5014233;28;20034;-81
2022/08/31 08:15:25;;;;;;;0.85;0.40;;;;;;;31.35;31.22;98611.88;5010996;28;20084;-80
2022/08/31 08:17:52;;;;;;;0.55;0.55;;;;;;;32.55;28.39;98623.50;5012251;28;20482;-81
2022/08/31 08:20:18;;;;;;;0.50;0.40;;;;;;;32.83;28.60;98613.59;5013546;28;20544;-79
2022/08/31 08:22:45;;;;;;;0.40;0.40;;;;;;;33.32;27.62;98618.84;5010016;28;20129;-80
2022/08/31 08:25:13;;;;;;;0.45;0.40;;;;;;;32.58;30.39;98620.47;5001899;28;20037;-80
2022/08/31 08:27:39;;;;;;;0.40;0.40;;;;;;;32.14;31.39;98615.69;5010215;28;20084;-80
2022/08/31 08:30:07;;;;;;;0.35;0.35;;;;;;;32.44;28.95;98617.50;5009394;28;20033;-79
2022/08/31 08:32:34;;;;;;;1.50;0.40;;;;;;;32.72;28.64;98616.94;5013327;28;20045;-81
2022/08/31 08:35:00;;;;;;;0.45;0.30;;;;;;;33.33;28.14;98623.25;5010855;28;20435;-80
2022/08/31 08:37:27;;;;;;;0.20;0.20;;;;;;;34.20;26.33;98607.69;5012194;28;20037;-79
2022/08/31 08:39:54;;;;;;;0.95;0.38;;;;;;;34.53;27.17;98609.09;5009850;28;20105;-80
2022/08/31 08:42:22;;;;;;;0.40;0.30;;;;;;;33.72;28.03;98621.28;4993694;28;20061;-80
2022/08/31 08:44:48;;;;;;;2.20;0.32;;;;;;;32.80;29.18;98625.13;4997493;28;20474;-80
2022/08/31 08:47:19;;;;;;;0.30;0.30;;;;;;;32.13;30.63;98625.47;5013359;28;20129;-80
2022/08/31 08:49:49;;;;;;;0.47;0.38;;;;;;;32.50;29.04;98616.41;5013140;28;20026;-79
2022/08/31 08:52:30;;;;;;;0.30;0.30;;;;;;;32.71;28.99;98615.38;5012246;28;20038;-80
2022/08/31 08:55:08;;;;;;;0.73;0.30;;;;;;;33.11;29.09;98620.75;5013270;28;20458;-79
2022/08/31 08:57:37;;;;;;;0.93;0.60;;;;;;;30.58;33.58;98622.34;5004259;28;20035;-80
2022/08/31 09:00:15;;;;;;;0.90;0.55;;;;;;;31.05;32.35;98616.41;4993476;28;20041;-80
2022/08/31 09:02:57;;;;;;;0.60;0.60;;;;;;;31.51;30.88;98620.09;5007682;28;20037;-79
2022/08/31 09:05:33;;;;;;;1.92;0.70;;;;;;;30.31;34.29;98613.69;5006944;28;20061;-80
2022/08/31 09:08:22;;;;;;;1.67;0.50;;;;;;;31.02;31.66;98611.66;5010369;28;20391;-80
2022/08/31 09:10:56;;;;;;;1.13;0.60;;;;;;;32.63;29.20;98607.66;5012278;28;20053;-79
2022/08/31 09:14:05;;;;;;;0.57;0.50;;;;;;;30.94;30.74;98601.06;5012714;28;20131;-79
2022/08/31 09:16:48;;;;;;;1.13;0.50;;;;;;;30.21;32.74;98605.59;4993209;28;20509;-80
2022/08/31 09:19:17;;;;;;;1.15;0.77;;;;;;;28.66;37.06;98604.16;5001346;28;20497;-80
2022/08/31 09:21:56;;;;;;;1.13;0.70;;;;;;;29.13;32.83;98612.69;5008077;28;20520;-79
2022/08/31 09:24:26;;;;;;;2.03;1.10;;;;;;;29.88;34.10;98602.38;5009629;28;20413;-80
2022/08/31 09:26:55;;;;;;;0.60;0.60;;;;;;;30.50;34.08;98594.75;5013051;28;20045;-80
2022/08/31 09:29:27;;;;;;;0.80;0.80;;;;;;;31.39;33.43;98596.25;4997580;28;20092;-80
2022/08/31 09:32:24;;;;;;;0.50;0.50;;;;;;;31.63;29.36;98592.81;5008834;28;20058;-80
2022/08/31 09:35:00;;;;;;;2.05;0.70;;;;;;;32.21;30.48;98592.63;5010770;28;20084;-80
2022/08/31 09:37:31;;;;;;;1.23;0.60;;;;;;;32.50;31.67;98592.88;5017166;28;20034;-80
2022/08/31 09:40:16;;;;;;;0.60;0.60;;;;;;;32.69;29.93;98589.47;5015317;28;20038;-80
2022/08/31 09:42:45;;;;;;;0.60;0.60;;;;;;;31.31;32.85;98599.88;5015899;28;20041;-80
2022/08/31 09:45:28;;;;;;;0.47;0.47;;;;;;;30.80;32.14;98595.97;5014902;28;20525;-80
2022/08/31 09:47:59;;;;;;;0.90;0.80;;;;;;;29.76;34.52;98592.72;5010853;28;20382;-79
2022/08/31 09:50:36;;;;;;;0.60;0.57;;;;;;;30.05;33.29;98587.56;5016335;28;20436;-80
2022/08/31 09:56:12;;;;;;;2.05;0.70;;;;;;;31.53;30.87;98580.69;4996250;28;20053;-80
2022/08/31 09:58:40;;;;;;;1.85;0.70;;;;;;;30.52;32.42;98589.41;5006882;28;20038;-80
2022/08/31 10:01:30;;;;;;;0.65;0.65;;;;;;;29.50;34.42;98584.78;5015841;28;20041;-81
2022/08/31 10:04:25;;;;;;;3.30;0.90;;;;;;;30.73;31.20;98583.69;5015665;28;20121;-80
2022/08/31 10:07:30;;;;;;;0.90;0.60;;;;;;;31.79;28.80;98576.25;5011645;28;20027;-80
2022/08/31 10:10:06;;;;;;;1.38;0.77;;;;;;;30.71;32.67;98585.41;4999991;28;20125;-80
2022/08/31 10:13:08;;;;;;;2.35;0.90;;;;;;;31.39;30.20;98578.47;5015499;28;20057;-80
2022/08/31 10:15:40;;;;;;;0.95;0.75;;;;;;;31.02;32.08;98579.66;5014167;28;20413;-80
2022/08/31 10:18:12;;;;;;;1.88;0.93;;;;;;;31.07;34.02;98579.84;5014438;28;20379;-80
2022/08/31 10:20:45;;;;;;;0.85;0.70;;;;;;;31.86;31.56;98575.13;5014821;28;20074;-80
2022/08/31 10:23:19;;;;;;;0.60;0.60;;;;;;;32.27;30.52;98582.97;5001298;28;20045;-79
2022/08/31 10:25:53;;;;;;;1.00;0.60;;;;;;;32.50;32.11;98581.50;5010981;28;20457;-80
2022/08/31 10:28:36;;;;;;;0.65;0.50;;;;;;;32.65;29.88;98582.41;5015554;28;20030;-80
2022/08/31 10:31:02;;;;;;;1.38;0.98;;;;;;;30.98;33.10;98584.69;5015246;28;20464;-80
2022/08/31 10:36:35;;;;;;;2.53;0.70;;;;;;;32.51;30.68;98578.16;5015156;28;20077;-80
2022/08/31 10:39:02;;;;;;;1.02;0.70;;;;;;;32.10;33.30;98576.06;4996175;28;20497;-80
2022/08/31 10:41:42;;;;;;;0.60;0.60;;;;;;;32.79;29.64;98567.47;5014379;28;20512;-80
2022/08/31 10:44:25;;;;;;;0.70;0.70;;;;;;;33.25;29.51;98573.69;5008414;28;20064;-80
2022/08/31 10:47:01;;;;;;;4.03;0.80;;;;;;;31.67;32.51;98567.91;5005540;28;20037;-80
2022/08/31 10:49:28;;;;;;;1.17;0.82;;;;;;;31.89;33.19;98565.66;5012130;28;20490;-80
2022/08/31 10:52:05;;;;;;;1.00;0.80;;;;;;;31.99;29.93;98567.25;5009477;28;20038;-80
2022/08/31 10:54:53;;;;;;;0.80;0.80;;;;;;;32.39;29.84;98562.09;5009271;28;20482;-80
2022/08/31 10:57:44;;;;;;;0.70;0.70;;;;;;;31.76;29.68;98563.03;5003912;28;20076;-80
2022/08/31 11:00:44;;;;;;;0.85;0.85;;;;;;;32.31;30.94;98563.69;5012165;28;20042;-80
2022/08/31 11:03:39;;;;;;;1.75;1.10;;;;;;;30.43;30.20;98564.66;5009962;28;20117;-80
2022/08/31 11:06:18;;;;;;;2.25;0.90;;;;;;;30.53;32.35;98569.09;5002280;28;20117;-80
2022/08/31 11:09:02;;;;;;;0.85;0.75;;;;;;;31.19;29.55;98567.56;5006708;28;20034;-80
2022/08/31 11:11:35;;;;;;;0.80;0.80;;;;;;;31.57;29.90;98561.47;5007495;28;20053;-80
2022/08/31 11:14:26;;;;;;;1.35;0.80;;;;;;;31.04;29.76;98560.91;5005158;28;20041;-80
2022/08/31 11:17:28;;;;;;;1.48;0.90;;;;;;;31.23;32.21;98556.03;5006251;28;20096;-79
2022/08/31 11:20:19;;;;;;;0.85;0.80;;;;;;;31.74;30.33;98559.06;5008613;28;20116;-79
2022/08/31 11:23:09;;;;;;;;;;;;;;;30.00;30.02;98556.22;5021041;28;20589;-79
2022/08/31 11:25:47;;;;;;;0.73;0.63;;;;;;;30.30;29.36;98561.09;5002170;28;19917;-80
2022/08/31 11:28:30;;;;;;;2.60;0.70;;;;;;;30.39;32.43;98551.88;5009694;28;20033;-79
2022/08/31 11:31:07;;;;;;;0.95;0.70;;;;;;;31.26;31.45;98553.06;5002219;28;20038;-80
2022/08/31 11:33:33;;;;;;;0.90;0.70;;;;;;;31.37;31.93;98552.59;5006823;28;20034;-79
2022/08/31 11:36:05;;;;;;;0.47;0.47;;;;;;;32.19;30.26;98552.50;5012070;28;20045;-80
2022/08/31 11:38:53;;;;;;;1.58;1.00;;;;;;;31.13;29.63;98543.13;5008602;28;20089;-79
2022/08/31 11:41:38;;;;;;;1.88;0.70;;;;;;;30.75;28.67;98549.16;5006998;28;20402;-80
2022/08/31 11:44:07;;;;;;;2.97;0.80;;;;;;;30.67;31.57;98550.72;5011814;28;20045;-78
2022/08/31 11:46:35;;;;;;;1.73;0.70;;;;;;;30.33;32.55;98551.72;5011716;28;20085;-79
2022/08/31 11:49:01;;;;;;;1.42;0.95;;;;;;;30.80;31.40;98553.44;4999963;28;20580;-79
2022/08/31 11:51:33;;;;;;;2.03;0.50;;;;;;;30.87;30.27;98553.13;5010368;28;20398;-80
2022/08/31 11:54:04;;;;;;;3.83;0.60;;;;;;;30.88;31.75;98551.88;5013208;28;20544;-79
2022/08/31 11:56:55;;;;;;;0.50;0.50;;;;;;;33.23;28.05;98540.00;5015009;28;20044;-80
2022/08/31 11:59:33;;;;;;;;;;;;;;;32.29;25.72;98539.84;5008911;28;20521;-80
2022/08/31 12:02:22;;;;;;;1.48;0.40;;;;;;;30.85;26.62;98538.63;5007872;28;19921;-79
2022/08/31 12:04:52;;;;;;;0.90;0.52;;;;;;;30.81;31.82;98540.84;5006515;28;20026;-79